sensor_id;sensor_type;location;lat;lon;timestamp;P1;durP1;ratioP1;P2;durP2;ratioP2
64282;SDS011;50497;50.720;-2.084;2024-02-16T00:03:19;2.95;;;1.00;;
64282;SDS011;50497;50.720;-2.084;2024-02-16T00:05:44;2.28;;;1.00;;
64282;SDS011;50497;50.720;-2.084;2024-02-16T00:08:11;3.40;;;2.13;;
64282;SDS011;50497;50.720;-2.084;2024-02-16T00:10:38;1.45;;;0.80;;
64282;SDS011;50497;50.720;-2.084;2024-02-16T00:13:03;1.40;;;0.90;;
64282;SDS011;50497;50.720;-2.084;2024-02-16T00:15:29;4.78;;;1.75;;
64282;SDS011;50497;50.720;-2.084;2024-02-16T00:17:54;3.53;;;0.93;;
64282;SDS011;50497;50.720;-2.084;2024-02-16T00:20:20;4.32;;;1.10;;
64282;SDS011;50497;50.720;-2.084;2024-02-16T00:22:47;1.58;;;0.90;;
64282;SDS011;50497;50.720;-2.084;2024-02-16T00:25:13;3.20;;;1.40;;
64282;SDS011;50497;50.720;-2.084;2024-02-16T00:27:38;3.50;;;1.20;;
64282;SDS011;50497;50.720;-2.084;2024-02-16T00:30:04;5.63;;;2.20;;
64282;SDS011;50497;50.720;-2.084;2024-02-16T00:32:29;5.13;;;2.00;;
64282;SDS011;50497;50.720;-2.084;2024-02-16T00:34:56;6.47;;;2.10;;
64282;SDS011;50497;50.720;-2.084;2024-02-16T00:37:22;4.55;;;1.70;;
64282;SDS011;50497;50.720;-2.084;2024-02-16T00:39:49;4.20;;;1.40;;
64282;SDS011;50497;50.720;-2.084;2024-02-16T00:42:15;4.03;;;1.40;;
64282;SDS011;50497;50.720;-2.084;2024-02-16T00:44:40;3.53;;;1.20;;
64282;SDS011;50497;50.720;-2.084;2024-02-16T00:47:06;5.18;;;1.88;;
64282;SDS011;50497;50.720;-2.084;2024-02-16T00:49:32;4.40;;;1.83;;
64282;SDS011;50497;50.720;-2.084;2024-02-16T00:51:57;3.92;;;1.27;;
64282;SDS011;50497;50.720;-2.084;2024-02-16T00:54:23;5.30;;;1.80;;
64282;SDS011;50497;50.720;-2.084;2024-02-16T00:56:48;4.40;;;1.50;;
64282;SDS011;50497;50.720;-2.084;2024-02-16T00:59:14;5.00;;;1.40;;
64282;SDS011;50497;50.720;-2.084;2024-02-16T01:01:39;3.15;;;1.02;;
64282;SDS011;50497;50.720;-2.084;2024-02-16T01:04:04;3.35;;;1.20;;
64282;SDS011;50497;50.720;-2.084;2024-02-16T01:06:32;4.80;;;1.30;;
64282;SDS011;50497;50.720;-2.084;2024-02-16T01:08:57;4.10;;;1.33;;
64282;SDS011;50497;50.720;-2.084;2024-02-16T01:11:23;3.25;;;1.25;;
64282;SDS011;50497;50.720;-2.084;2024-02-16T01:13:48;3.40;;;1.20;;
64282;SDS011;50497;50.720;-2.084;2024-02-16T01:16:14;3.35;;;1.20;;
64282;SDS011;50497;50.720;-2.084;2024-02-16T01:18:40;3.67;;;1.10;;
64282;SDS011;50497;50.720;-2.084;2024-02-16T01:21:05;2.95;;;1.00;;
64282;SDS011;50497;50.720;-2.084;2024-02-16T01:23:31;2.00;;;0.93;;
64282;SDS011;50497;50.720;-2.084;2024-02-16T01:25:56;3.80;;;1.10;;
64282;SDS011;50497;50.720;-2.084;2024-02-16T01:28:21;3.05;;;1.40;;
64282;SDS011;50497;50.720;-2.084;2024-02-16T01:30:48;3.80;;;1.10;;
64282;SDS011;50497;50.720;-2.084;2024-02-16T01:33:13;4.10;;;1.10;;
64282;SDS011;50497;50.720;-2.084;2024-02-16T01:35:39;2.33;;;0.95;;
64282;SDS011;50497;50.720;-2.084;2024-02-16T01:38:05;2.47;;;1.10;;
64282;SDS011;50497;50.720;-2.084;2024-02-16T01:40:30;3.17;;;1.10;;
64282;SDS011;50497;50.720;-2.084;2024-02-16T01:42:56;4.18;;;1.20;;
64282;SDS011;50497;50.720;-2.084;2024-02-16T01:45:22;3.13;;;1.17;;
64282;SDS011;50497;50.720;-2.084;2024-02-16T01:47:49;4.13;;;1.27;;
64282;SDS011;50497;50.720;-2.084;2024-02-16T01:50:15;2.55;;;1.10;;
64282;SDS011;50497;50.720;-2.084;2024-02-16T01:52:46;5.07;;;1.45;;
64282;SDS011;50497;50.720;-2.084;2024-02-16T01:55:12;3.85;;;1.20;;
64282;SDS011;50497;50.720;-2.084;2024-02-16T01:57:44;4.40;;;1.50;;
64282;SDS011;50497;50.720;-2.084;2024-02-16T02:00:11;4.40;;;1.25;;
64282;SDS011;50497;50.720;-2.084;2024-02-16T02:02:39;5.13;;;1.30;;
64282;SDS011;50497;50.720;-2.084;2024-02-16T02:05:05;4.65;;;1.50;;
64282;SDS011;50497;50.720;-2.084;2024-02-16T02:07:32;3.72;;;1.30;;
64282;SDS011;50497;50.720;-2.084;2024-02-16T02:09:58;4.35;;;1.40;;
64282;SDS011;50497;50.720;-2.084;2024-02-16T02:12:24;4.50;;;1.50;;
64282;SDS011;50497;50.720;-2.084;2024-02-16T02:14:49;4.25;;;1.60;;
64282;SDS011;50497;50.720;-2.084;2024-02-16T02:17:15;5.78;;;1.50;;
64282;SDS011;50497;50.720;-2.084;2024-02-16T02:19:41;3.75;;;1.40;;
64282;SDS011;50497;50.720;-2.084;2024-02-16T02:24:42;4.63;;;1.85;;
64282;SDS011;50497;50.720;-2.084;2024-02-16T02:27:09;5.15;;;1.73;;
64282;SDS011;50497;50.720;-2.084;2024-02-16T02:29:35;4.32;;;1.70;;
64282;SDS011;50497;50.720;-2.084;2024-02-16T02:32:00;4.78;;;1.60;;
64282;SDS011;50497;50.720;-2.084;2024-02-16T02:34:25;7.07;;;1.90;;
64282;SDS011;50497;50.720;-2.084;2024-02-16T02:36:51;5.05;;;1.52;;
64282;SDS011;50497;50.720;-2.084;2024-02-16T02:39:16;4.43;;;1.40;;
64282;SDS011;50497;50.720;-2.084;2024-02-16T02:41:42;5.53;;;1.17;;
64282;SDS011;50497;50.720;-2.084;2024-02-16T02:44:08;6.18;;;1.45;;
64282;SDS011;50497;50.720;-2.084;2024-02-16T02:46:34;1.92;;;1.02;;
64282;SDS011;50497;50.720;-2.084;2024-02-16T02:49:00;4.07;;;1.30;;
64282;SDS011;50497;50.720;-2.084;2024-02-16T02:51:25;3.67;;;1.17;;
64282;SDS011;50497;50.720;-2.084;2024-02-16T02:53:52;3.75;;;1.10;;
64282;SDS011;50497;50.720;-2.084;2024-02-16T02:56:17;4.90;;;1.25;;
64282;SDS011;50497;50.720;-2.084;2024-02-16T02:58:43;4.38;;;1.10;;
64282;SDS011;50497;50.720;-2.084;2024-02-16T03:01:08;3.75;;;1.10;;
64282;SDS011;50497;50.720;-2.084;2024-02-16T03:03:34;3.47;;;1.10;;
64282;SDS011;50497;50.720;-2.084;2024-02-16T03:05:59;3.42;;;1.13;;
64282;SDS011;50497;50.720;-2.084;2024-02-16T03:08:25;3.35;;;1.15;;
64282;SDS011;50497;50.720;-2.084;2024-02-16T03:10:50;3.88;;;1.10;;
64282;SDS011;50497;50.720;-2.084;2024-02-16T03:13:16;5.45;;;1.30;;
64282;SDS011;50497;50.720;-2.084;2024-02-16T03:15:44;3.78;;;1.20;;
64282;SDS011;50497;50.720;-2.084;2024-02-16T03:18:10;4.30;;;1.77;;
64282;SDS011;50497;50.720;-2.084;2024-02-16T03:20:35;3.35;;;1.20;;
64282;SDS011;50497;50.720;-2.084;2024-02-16T03:23:01;6.78;;;1.35;;
64282;SDS011;50497;50.720;-2.084;2024-02-16T03:25:28;4.70;;;1.30;;
64282;SDS011;50497;50.720;-2.084;2024-02-16T03:27:53;6.72;;;1.55;;
64282;SDS011;50497;50.720;-2.084;2024-02-16T03:30:19;5.68;;;1.33;;
64282;SDS011;50497;50.720;-2.084;2024-02-16T03:32:48;6.35;;;1.60;;
64282;SDS011;50497;50.720;-2.084;2024-02-16T03:35:14;6.95;;;2.13;;
64282;SDS011;50497;50.720;-2.084;2024-02-16T03:37:40;6.88;;;1.50;;
64282;SDS011;50497;50.720;-2.084;2024-02-16T03:40:07;9.35;;;1.67;;
64282;SDS011;50497;50.720;-2.084;2024-02-16T03:42:34;7.90;;;1.63;;
64282;SDS011;50497;50.720;-2.084;2024-02-16T03:45:00;5.30;;;1.50;;
64282;SDS011;50497;50.720;-2.084;2024-02-16T03:47:26;4.30;;;1.48;;
64282;SDS011;50497;50.720;-2.084;2024-02-16T03:49:51;6.65;;;1.52;;
64282;SDS011;50497;50.720;-2.084;2024-02-16T03:52:17;6.22;;;1.67;;
64282;SDS011;50497;50.720;-2.084;2024-02-16T03:54:42;4.30;;;1.30;;
64282;SDS011;50497;50.720;-2.084;2024-02-16T03:57:09;4.95;;;1.40;;
64282;SDS011;50497;50.720;-2.084;2024-02-16T03:59:36;7.32;;;1.70;;
64282;SDS011;50497;50.720;-2.084;2024-02-16T04:02:02;5.88;;;1.60;;
64282;SDS011;50497;50.720;-2.084;2024-02-16T04:04:27;6.53;;;1.60;;
64282;SDS011;50497;50.720;-2.084;2024-02-16T04:06:53;4.75;;;1.40;;
64282;SDS011;50497;50.720;-2.084;2024-02-16T04:09:18;6.43;;;1.60;;
64282;SDS011;50497;50.720;-2.084;2024-02-16T04:11:45;7.03;;;1.60;;
64282;SDS011;50497;50.720;-2.084;2024-02-16T04:14:11;5.80;;;1.60;;
64282;SDS011;50497;50.720;-2.084;2024-02-16T04:16:37;6.40;;;1.60;;
64282;SDS011;50497;50.720;-2.084;2024-02-16T04:19:02;4.80;;;1.38;;
64282;SDS011;50497;50.720;-2.084;2024-02-16T04:21:28;4.50;;;1.33;;
64282;SDS011;50497;50.720;-2.084;2024-02-16T04:23:53;4.40;;;1.55;;
64282;SDS011;50497;50.720;-2.084;2024-02-16T04:26:19;7.78;;;1.80;;
64282;SDS011;50497;50.720;-2.084;2024-02-16T04:28:44;5.63;;;1.60;;
64282;SDS011;50497;50.720;-2.084;2024-02-16T04:31:10;7.03;;;1.70;;
64282;SDS011;50497;50.720;-2.084;2024-02-16T04:33:35;7.45;;;1.63;;
64282;SDS011;50497;50.720;-2.084;2024-02-16T04:36:00;7.88;;;2.20;;
64282;SDS011;50497;50.720;-2.084;2024-02-16T04:38:26;5.65;;;1.63;;
64282;SDS011;50497;50.720;-2.084;2024-02-16T04:40:51;7.30;;;1.60;;
64282;SDS011;50497;50.720;-2.084;2024-02-16T04:43:16;6.22;;;1.55;;
64282;SDS011;50497;50.720;-2.084;2024-02-16T04:45:42;5.95;;;1.70;;
64282;SDS011;50497;50.720;-2.084;2024-02-16T04:48:08;6.50;;;1.80;;
64282;SDS011;50497;50.720;-2.084;2024-02-16T04:50:34;5.00;;;1.80;;
64282;SDS011;50497;50.720;-2.084;2024-02-16T04:53:00;5.85;;;1.60;;
64282;SDS011;50497;50.720;-2.084;2024-02-16T04:55:28;5.75;;;1.65;;
64282;SDS011;50497;50.720;-2.084;2024-02-16T04:57:55;7.68;;;1.70;;
64282;SDS011;50497;50.720;-2.084;2024-02-16T05:00:21;6.22;;;1.63;;
64282;SDS011;50497;50.720;-2.084;2024-02-16T05:02:46;11.40;;;2.33;;
64282;SDS011;50497;50.720;-2.084;2024-02-16T05:05:11;9.68;;;2.30;;
64282;SDS011;50497;50.720;-2.084;2024-02-16T05:07:37;6.75;;;2.22;;
64282;SDS011;50497;50.720;-2.084;2024-02-16T05:10:03;8.80;;;2.20;;
64282;SDS011;50497;50.720;-2.084;2024-02-16T05:12:28;10.20;;;1.95;;
64282;SDS011;50497;50.720;-2.084;2024-02-16T05:14:54;9.90;;;2.33;;
64282;SDS011;50497;50.720;-2.084;2024-02-16T05:17:20;7.50;;;2.25;;
64282;SDS011;50497;50.720;-2.084;2024-02-16T05:19:47;7.78;;;2.03;;
64282;SDS011;50497;50.720;-2.084;2024-02-16T05:22:13;8.05;;;2.63;;
64282;SDS011;50497;50.720;-2.084;2024-02-16T05:24:39;6.78;;;1.40;;
64282;SDS011;50497;50.720;-2.084;2024-02-16T05:27:05;10.00;;;2.00;;
64282;SDS011;50497;50.720;-2.084;2024-02-16T05:29:30;11.52;;;1.70;;
64282;SDS011;50497;50.720;-2.084;2024-02-16T05:31:55;9.02;;;1.65;;
64282;SDS011;50497;50.720;-2.084;2024-02-16T05:34:21;6.85;;;1.45;;
64282;SDS011;50497;50.720;-2.084;2024-02-16T05:36:46;7.03;;;1.42;;
64282;SDS011;50497;50.720;-2.084;2024-02-16T05:39:12;12.52;;;1.92;;
64282;SDS011;50497;50.720;-2.084;2024-02-16T05:41:52;9.05;;;1.40;;
64282;SDS011;50497;50.720;-2.084;2024-02-16T05:44:18;8.23;;;1.58;;
64282;SDS011;50497;50.720;-2.084;2024-02-16T05:46:45;7.13;;;1.67;;
64282;SDS011;50497;50.720;-2.084;2024-02-16T05:49:11;11.48;;;2.15;;
64282;SDS011;50497;50.720;-2.084;2024-02-16T05:51:37;11.32;;;1.90;;
64282;SDS011;50497;50.720;-2.084;2024-02-16T05:54:04;10.90;;;1.90;;
64282;SDS011;50497;50.720;-2.084;2024-02-16T05:56:30;15.88;;;1.85;;
64282;SDS011;50497;50.720;-2.084;2024-02-16T05:58:58;7.13;;;2.00;;
64282;SDS011;50497;50.720;-2.084;2024-02-16T06:01:27;11.52;;;1.90;;
64282;SDS011;50497;50.720;-2.084;2024-02-16T06:03:53;8.02;;;1.73;;
64282;SDS011;50497;50.720;-2.084;2024-02-16T06:06:18;10.98;;;2.22;;
64282;SDS011;50497;50.720;-2.084;2024-02-16T06:08:44;14.80;;;2.20;;
64282;SDS011;50497;50.720;-2.084;2024-02-16T06:11:09;7.15;;;1.90;;
64282;SDS011;50497;50.720;-2.084;2024-02-16T06:13:34;8.23;;;1.98;;
64282;SDS011;50497;50.720;-2.084;2024-02-16T06:16:00;11.35;;;2.00;;
64282;SDS011;50497;50.720;-2.084;2024-02-16T06:18:25;9.90;;;2.03;;
64282;SDS011;50497;50.720;-2.084;2024-02-16T06:20:54;8.45;;;1.60;;
64282;SDS011;50497;50.720;-2.084;2024-02-16T06:23:20;5.10;;;1.90;;
64282;SDS011;50497;50.720;-2.084;2024-02-16T06:25:45;9.90;;;2.30;;
64282;SDS011;50497;50.720;-2.084;2024-02-16T06:28:11;8.10;;;1.70;;
64282;SDS011;50497;50.720;-2.084;2024-02-16T06:30:36;7.82;;;1.60;;
64282;SDS011;50497;50.720;-2.084;2024-02-16T06:33:02;13.32;;;2.05;;
64282;SDS011;50497;50.720;-2.084;2024-02-16T06:35:28;10.90;;;1.70;;
64282;SDS011;50497;50.720;-2.084;2024-02-16T06:37:54;12.07;;;2.20;;
64282;SDS011;50497;50.720;-2.084;2024-02-16T06:40:20;9.27;;;1.52;;
64282;SDS011;50497;50.720;-2.084;2024-02-16T06:42:46;9.35;;;1.55;;
64282;SDS011;50497;50.720;-2.084;2024-02-16T06:45:11;9.70;;;1.77;;
64282;SDS011;50497;50.720;-2.084;2024-02-16T06:47:37;7.05;;;1.70;;
64282;SDS011;50497;50.720;-2.084;2024-02-16T06:50:02;12.38;;;2.05;;
64282;SDS011;50497;50.720;-2.084;2024-02-16T06:52:28;9.88;;;2.13;;
64282;SDS011;50497;50.720;-2.084;2024-02-16T06:54:53;9.60;;;1.35;;
64282;SDS011;50497;50.720;-2.084;2024-02-16T06:57:19;10.48;;;1.83;;
64282;SDS011;50497;50.720;-2.084;2024-02-16T06:59:45;10.90;;;1.73;;
64282;SDS011;50497;50.720;-2.084;2024-02-16T07:02:11;11.77;;;1.75;;
64282;SDS011;50497;50.720;-2.084;2024-02-16T07:04:36;9.85;;;1.90;;
64282;SDS011;50497;50.720;-2.084;2024-02-16T07:07:01;13.07;;;1.80;;
64282;SDS011;50497;50.720;-2.084;2024-02-16T07:09:29;8.25;;;1.60;;
64282;SDS011;50497;50.720;-2.084;2024-02-16T07:11:54;11.93;;;1.95;;
64282;SDS011;50497;50.720;-2.084;2024-02-16T07:14:19;10.02;;;2.20;;
64282;SDS011;50497;50.720;-2.084;2024-02-16T07:16:45;8.43;;;1.83;;
64282;SDS011;50497;50.720;-2.084;2024-02-16T07:19:10;8.13;;;1.52;;
64282;SDS011;50497;50.720;-2.084;2024-02-16T07:21:36;7.72;;;1.70;;
64282;SDS011;50497;50.720;-2.084;2024-02-16T07:24:01;9.45;;;1.92;;
64282;SDS011;50497;50.720;-2.084;2024-02-16T07:26:27;11.93;;;2.00;;
64282;SDS011;50497;50.720;-2.084;2024-02-16T07:28:54;9.93;;;1.98;;
64282;SDS011;50497;50.720;-2.084;2024-02-16T07:31:19;8.65;;;1.85;;
64282;SDS011;50497;50.720;-2.084;2024-02-16T07:33:45;11.05;;;1.90;;
64282;SDS011;50497;50.720;-2.084;2024-02-16T07:36:10;7.95;;;1.70;;
64282;SDS011;50497;50.720;-2.084;2024-02-16T07:38:36;10.27;;;1.42;;
64282;SDS011;50497;50.720;-2.084;2024-02-16T07:41:01;8.65;;;1.85;;
64282;SDS011;50497;50.720;-2.084;2024-02-16T07:43:27;7.13;;;1.70;;
64282;SDS011;50497;50.720;-2.084;2024-02-16T07:45:53;9.43;;;1.70;;
64282;SDS011;50497;50.720;-2.084;2024-02-16T07:48:19;10.35;;;1.55;;
64282;SDS011;50497;50.720;-2.084;2024-02-16T07:50:46;8.48;;;1.73;;
64282;SDS011;50497;50.720;-2.084;2024-02-16T07:53:12;5.65;;;1.50;;
64282;SDS011;50497;50.720;-2.084;2024-02-16T07:55:37;8.68;;;1.35;;
64282;SDS011;50497;50.720;-2.084;2024-02-16T07:58:03;7.90;;;1.45;;
64282;SDS011;50497;50.720;-2.084;2024-02-16T08:00:28;8.25;;;1.60;;
64282;SDS011;50497;50.720;-2.084;2024-02-16T08:02:54;11.90;;;1.80;;
64282;SDS011;50497;50.720;-2.084;2024-02-16T08:05:19;10.02;;;1.80;;
64282;SDS011;50497;50.720;-2.084;2024-02-16T08:07:45;8.65;;;1.80;;
64282;SDS011;50497;50.720;-2.084;2024-02-16T08:10:12;6.75;;;1.73;;
64282;SDS011;50497;50.720;-2.084;2024-02-16T08:12:37;9.70;;;1.73;;
64282;SDS011;50497;50.720;-2.084;2024-02-16T08:15:03;9.32;;;1.45;;
64282;SDS011;50497;50.720;-2.084;2024-02-16T08:17:32;7.82;;;1.80;;
64282;SDS011;50497;50.720;-2.084;2024-02-16T08:19:58;9.95;;;1.75;;
64282;SDS011;50497;50.720;-2.084;2024-02-16T08:22:24;7.97;;;1.90;;
64282;SDS011;50497;50.720;-2.084;2024-02-16T08:24:49;9.55;;;1.50;;
64282;SDS011;50497;50.720;-2.084;2024-02-16T08:27:15;8.68;;;1.50;;
64282;SDS011;50497;50.720;-2.084;2024-02-16T08:29:41;10.13;;;1.50;;
64282;SDS011;50497;50.720;-2.084;2024-02-16T08:32:07;10.75;;;1.55;;
64282;SDS011;50497;50.720;-2.084;2024-02-16T08:34:34;10.55;;;1.50;;
64282;SDS011;50497;50.720;-2.084;2024-02-16T08:37:02;7.97;;;1.60;;
64282;SDS011;50497;50.720;-2.084;2024-02-16T08:39:29;7.97;;;1.80;;
64282;SDS011;50497;50.720;-2.084;2024-02-16T08:41:55;8.25;;;1.40;;
64282;SDS011;50497;50.720;-2.084;2024-02-16T08:44:21;7.13;;;1.80;;
64282;SDS011;50497;50.720;-2.084;2024-02-16T08:46:46;9.43;;;1.70;;
64282;SDS011;50497;50.720;-2.084;2024-02-16T08:49:15;7.28;;;1.63;;
64282;SDS011;50497;50.720;-2.084;2024-02-16T08:54:07;10.13;;;2.53;;
64282;SDS011;50497;50.720;-2.084;2024-02-16T08:56:32;8.18;;;1.67;;
64282;SDS011;50497;50.720;-2.084;2024-02-16T08:59:00;7.88;;;1.80;;
64282;SDS011;50497;50.720;-2.084;2024-02-16T09:01:35;8.43;;;1.42;;
64282;SDS011;50497;50.720;-2.084;2024-02-16T09:04:02;6.22;;;1.38;;
64282;SDS011;50497;50.720;-2.084;2024-02-16T09:06:28;6.95;;;1.20;;
64282;SDS011;50497;50.720;-2.084;2024-02-16T09:08:54;9.80;;;1.60;;
64282;SDS011;50497;50.720;-2.084;2024-02-16T09:11:20;5.45;;;1.30;;
64282;SDS011;50497;50.720;-2.084;2024-02-16T09:13:46;8.15;;;1.20;;
64282;SDS011;50497;50.720;-2.084;2024-02-16T09:16:12;6.82;;;1.48;;
64282;SDS011;50497;50.720;-2.084;2024-02-16T09:18:40;10.52;;;1.55;;
64282;SDS011;50497;50.720;-2.084;2024-02-16T09:21:06;7.85;;;1.83;;
64282;SDS011;50497;50.720;-2.084;2024-02-16T09:23:32;5.13;;;1.23;;
64282;SDS011;50497;50.720;-2.084;2024-02-16T09:25:59;10.18;;;1.55;;
64282;SDS011;50497;50.720;-2.084;2024-02-16T09:28:25;5.75;;;1.40;;
64282;SDS011;50497;50.720;-2.084;2024-02-16T09:30:51;5.93;;;1.30;;
64282;SDS011;50497;50.720;-2.084;2024-02-16T09:33:17;7.57;;;1.55;;
64282;SDS011;50497;50.720;-2.084;2024-02-16T09:35:42;9.57;;;2.05;;
64282;SDS011;50497;50.720;-2.084;2024-02-16T09:38:08;5.22;;;1.38;;
64282;SDS011;50497;50.720;-2.084;2024-02-16T09:40:35;7.38;;;1.60;;
64282;SDS011;50497;50.720;-2.084;2024-02-16T09:43:01;7.20;;;1.30;;
64282;SDS011;50497;50.720;-2.084;2024-02-16T09:45:28;4.95;;;1.27;;
64282;SDS011;50497;50.720;-2.084;2024-02-16T09:47:54;8.07;;;1.40;;
64282;SDS011;50497;50.720;-2.084;2024-02-16T09:50:20;7.03;;;1.45;;
64282;SDS011;50497;50.720;-2.084;2024-02-16T09:52:47;6.57;;;1.23;;
64282;SDS011;50497;50.720;-2.084;2024-02-16T09:55:14;6.20;;;1.10;;
64282;SDS011;50497;50.720;-2.084;2024-02-16T09:57:40;4.50;;;0.95;;
64282;SDS011;50497;50.720;-2.084;2024-02-16T10:00:06;8.40;;;1.30;;
64282;SDS011;50497;50.720;-2.084;2024-02-16T10:02:44;6.47;;;1.40;;
64282;SDS011;50497;50.720;-2.084;2024-02-16T10:05:14;8.13;;;1.20;;
64282;SDS011;50497;50.720;-2.084;2024-02-16T10:07:41;4.68;;;1.20;;
64282;SDS011;50497;50.720;-2.084;2024-02-16T10:10:19;8.88;;;1.50;;
64282;SDS011;50497;50.720;-2.084;2024-02-16T10:13:03;5.82;;;1.40;;
64282;SDS011;50497;50.720;-2.084;2024-02-16T10:15:30;5.90;;;1.60;;
64282;SDS011;50497;50.720;-2.084;2024-02-16T10:18:00;6.93;;;1.48;;
64282;SDS011;50497;50.720;-2.084;2024-02-16T10:20:30;5.97;;;1.30;;
64282;SDS011;50497;50.720;-2.084;2024-02-16T10:25:33;4.88;;;1.17;;
64282;SDS011;50497;50.720;-2.084;2024-02-16T10:28:02;5.50;;;1.30;;
64282;SDS011;50497;50.720;-2.084;2024-02-16T10:30:30;6.18;;;1.23;;
64282;SDS011;50497;50.720;-2.084;2024-02-16T10:33:00;4.68;;;1.20;;
64282;SDS011;50497;50.720;-2.084;2024-02-16T10:35:25;5.53;;;1.20;;
64282;SDS011;50497;50.720;-2.084;2024-02-16T10:37:53;6.95;;;2.03;;
64282;SDS011;50497;50.720;-2.084;2024-02-16T10:40:21;7.78;;;1.60;;
64282;SDS011;50497;50.720;-2.084;2024-02-16T10:42:49;6.70;;;1.20;;
64282;SDS011;50497;50.720;-2.084;2024-02-16T10:45:16;5.20;;;0.90;;
64282;SDS011;50497;50.720;-2.084;2024-02-16T10:47:42;4.45;;;1.00;;
64282;SDS011;50497;50.720;-2.084;2024-02-16T10:50:08;5.60;;;1.00;;
64282;SDS011;50497;50.720;-2.084;2024-02-16T10:55:01;2.58;;;0.80;;
64282;SDS011;50497;50.720;-2.084;2024-02-16T10:57:29;4.70;;;1.45;;
64282;SDS011;50497;50.720;-2.084;2024-02-16T10:59:54;5.15;;;1.08;;
64282;SDS011;50497;50.720;-2.084;2024-02-16T11:02:21;3.17;;;0.80;;
64282;SDS011;50497;50.720;-2.084;2024-02-16T11:04:47;3.45;;;0.93;;
64282;SDS011;50497;50.720;-2.084;2024-02-16T11:07:16;6.88;;;1.10;;
64282;SDS011;50497;50.720;-2.084;2024-02-16T11:09:43;4.25;;;1.02;;
64282;SDS011;50497;50.720;-2.084;2024-02-16T11:12:11;3.58;;;1.00;;
64282;SDS011;50497;50.720;-2.084;2024-02-16T11:14:41;4.60;;;0.98;;
64282;SDS011;50497;50.720;-2.084;2024-02-16T11:17:14;4.82;;;1.20;;
64282;SDS011;50497;50.720;-2.084;2024-02-16T11:19:44;3.00;;;0.80;;
64282;SDS011;50497;50.720;-2.084;2024-02-16T11:22:11;4.22;;;1.00;;
64282;SDS011;50497;50.720;-2.084;2024-02-16T11:24:50;2.70;;;0.80;;
64282;SDS011;50497;50.720;-2.084;2024-02-16T11:27:18;4.97;;;0.88;;
64282;SDS011;50497;50.720;-2.084;2024-02-16T11:29:45;4.43;;;0.80;;
64282;SDS011;50497;50.720;-2.084;2024-02-16T11:32:11;5.65;;;0.93;;
64282;SDS011;50497;50.720;-2.084;2024-02-16T11:34:36;4.47;;;1.00;;
64282;SDS011;50497;50.720;-2.084;2024-02-16T11:37:05;3.67;;;1.00;;
64282;SDS011;50497;50.720;-2.084;2024-02-16T11:39:30;3.95;;;1.02;;
64282;SDS011;50497;50.720;-2.084;2024-02-16T11:42:00;3.78;;;1.10;;
64282;SDS011;50497;50.720;-2.084;2024-02-16T11:44:37;3.33;;;0.90;;
64282;SDS011;50497;50.720;-2.084;2024-02-16T11:47:07;5.10;;;1.08;;
64282;SDS011;50497;50.720;-2.084;2024-02-16T11:49:42;4.18;;;1.00;;
64282;SDS011;50497;50.720;-2.084;2024-02-16T11:52:07;3.50;;;0.90;;
64282;SDS011;50497;50.720;-2.084;2024-02-16T11:54:33;3.85;;;0.90;;
64282;SDS011;50497;50.720;-2.084;2024-02-16T11:57:00;5.43;;;1.10;;
64282;SDS011;50497;50.720;-2.084;2024-02-16T11:59:25;6.07;;;1.00;;
64282;SDS011;50497;50.720;-2.084;2024-02-16T12:01:55;7.30;;;1.15;;
64282;SDS011;50497;50.720;-2.084;2024-02-16T12:06:52;4.18;;;1.00;;
64282;SDS011;50497;50.720;-2.084;2024-02-16T12:09:20;4.75;;;1.08;;
64282;SDS011;50497;50.720;-2.084;2024-02-16T12:11:47;7.07;;;1.20;;
64282;SDS011;50497;50.720;-2.084;2024-02-16T12:14:15;6.38;;;1.00;;
64282;SDS011;50497;50.720;-2.084;2024-02-16T12:16:48;7.03;;;1.40;;
64282;SDS011;50497;50.720;-2.084;2024-02-16T12:19:15;6.88;;;1.40;;
64282;SDS011;50497;50.720;-2.084;2024-02-16T12:21:41;5.60;;;1.50;;
64282;SDS011;50497;50.720;-2.084;2024-02-16T12:24:07;5.80;;;1.50;;
64282;SDS011;50497;50.720;-2.084;2024-02-16T12:26:32;6.28;;;1.55;;
64282;SDS011;50497;50.720;-2.084;2024-02-16T12:28:58;5.57;;;1.30;;
64282;SDS011;50497;50.720;-2.084;2024-02-16T12:31:23;4.32;;;1.10;;
64282;SDS011;50497;50.720;-2.084;2024-02-16T12:33:49;8.20;;;1.20;;
64282;SDS011;50497;50.720;-2.084;2024-02-16T12:36:14;5.32;;;1.40;;
64282;SDS011;50497;50.720;-2.084;2024-02-16T12:38:41;9.25;;;1.40;;
64282;SDS011;50497;50.720;-2.084;2024-02-16T12:41:06;7.35;;;1.48;;
64282;SDS011;50497;50.720;-2.084;2024-02-16T12:43:33;7.45;;;1.90;;
64282;SDS011;50497;50.720;-2.084;2024-02-16T12:45:59;5.75;;;1.48;;
64282;SDS011;50497;50.720;-2.084;2024-02-16T12:48:27;9.45;;;1.98;;
64282;SDS011;50497;50.720;-2.084;2024-02-16T12:50:53;10.32;;;1.92;;
64282;SDS011;50497;50.720;-2.084;2024-02-16T12:53:19;7.50;;;1.63;;
64282;SDS011;50497;50.720;-2.084;2024-02-16T12:55:45;8.43;;;1.70;;
64282;SDS011;50497;50.720;-2.084;2024-02-16T12:58:12;7.95;;;1.38;;
64282;SDS011;50497;50.720;-2.084;2024-02-16T13:00:38;8.02;;;1.40;;
64282;SDS011;50497;50.720;-2.084;2024-02-16T13:03:03;6.18;;;1.45;;
64282;SDS011;50497;50.720;-2.084;2024-02-16T13:05:29;5.05;;;1.33;;
64282;SDS011;50497;50.720;-2.084;2024-02-16T13:07:57;7.82;;;1.40;;
64282;SDS011;50497;50.720;-2.084;2024-02-16T13:10:22;7.70;;;2.10;;
64282;SDS011;50497;50.720;-2.084;2024-02-16T13:12:51;7.30;;;1.40;;
64282;SDS011;50497;50.720;-2.084;2024-02-16T13:15:16;8.40;;;1.65;;
64282;SDS011;50497;50.720;-2.084;2024-02-16T13:17:42;4.90;;;1.48;;
64282;SDS011;50497;50.720;-2.084;2024-02-16T13:20:07;6.00;;;1.30;;
64282;SDS011;50497;50.720;-2.084;2024-02-16T13:22:37;9.30;;;1.35;;
64282;SDS011;50497;50.720;-2.084;2024-02-16T13:25:03;7.60;;;1.55;;
64282;SDS011;50497;50.720;-2.084;2024-02-16T13:27:30;11.02;;;1.60;;
64282;SDS011;50497;50.720;-2.084;2024-02-16T13:29:56;7.18;;;1.40;;
64282;SDS011;50497;50.720;-2.084;2024-02-16T13:32:21;6.82;;;1.42;;
64282;SDS011;50497;50.720;-2.084;2024-02-16T13:34:47;7.75;;;1.58;;
64282;SDS011;50497;50.720;-2.084;2024-02-16T13:37:13;7.40;;;1.63;;
64282;SDS011;50497;50.720;-2.084;2024-02-16T13:39:38;8.98;;;1.60;;
64282;SDS011;50497;50.720;-2.084;2024-02-16T13:42:04;6.15;;;1.35;;
64282;SDS011;50497;50.720;-2.084;2024-02-16T13:44:30;6.10;;;1.50;;
64282;SDS011;50497;50.720;-2.084;2024-02-16T13:46:55;11.27;;;1.58;;
64282;SDS011;50497;50.720;-2.084;2024-02-16T13:49:22;7.20;;;1.50;;
64282;SDS011;50497;50.720;-2.084;2024-02-16T13:51:47;6.18;;;1.40;;
64282;SDS011;50497;50.720;-2.084;2024-02-16T13:54:13;8.93;;;1.70;;
64282;SDS011;50497;50.720;-2.084;2024-02-16T13:56:38;6.88;;;1.30;;
64282;SDS011;50497;50.720;-2.084;2024-02-16T13:59:04;5.82;;;1.30;;
64282;SDS011;50497;50.720;-2.084;2024-02-16T14:01:32;5.10;;;1.23;;
64282;SDS011;50497;50.720;-2.084;2024-02-16T14:03:59;10.38;;;1.88;;
64282;SDS011;50497;50.720;-2.084;2024-02-16T14:06:25;6.65;;;1.60;;
64282;SDS011;50497;50.720;-2.084;2024-02-16T14:08:50;6.80;;;1.50;;
64282;SDS011;50497;50.720;-2.084;2024-02-16T14:11:18;8.73;;;1.67;;
64282;SDS011;50497;50.720;-2.084;2024-02-16T14:13:43;8.70;;;1.30;;
64282;SDS011;50497;50.720;-2.084;2024-02-16T14:16:09;8.18;;;1.30;;
64282;SDS011;50497;50.720;-2.084;2024-02-16T14:18:35;7.13;;;1.30;;
64282;SDS011;50497;50.720;-2.084;2024-02-16T14:21:01;9.70;;;1.65;;
64282;SDS011;50497;50.720;-2.084;2024-02-16T14:23:27;7.10;;;1.58;;
64282;SDS011;50497;50.720;-2.084;2024-02-16T14:25:54;6.60;;;1.42;;
64282;SDS011;50497;50.720;-2.084;2024-02-16T14:28:19;9.07;;;1.42;;
64282;SDS011;50497;50.720;-2.084;2024-02-16T14:30:45;5.72;;;1.50;;
64282;SDS011;50497;50.720;-2.084;2024-02-16T14:33:10;7.03;;;1.45;;
64282;SDS011;50497;50.720;-2.084;2024-02-16T14:35:36;6.45;;;1.45;;
64282;SDS011;50497;50.720;-2.084;2024-02-16T14:38:02;6.10;;;1.30;;
64282;SDS011;50497;50.720;-2.084;2024-02-16T14:40:31;13.93;;;6.63;;
64282;SDS011;50497;50.720;-2.084;2024-02-16T14:45:23;7.30;;;1.53;;